world map with FYKT marked

FYKT - Airport

This information may not be accurate or current and is not valid for navigation or flight planning. No warranty of fitness for any purpose is made or implied.

flag of Namibia

Donate via PayPal

Additional information is available on the NEW Great Circle Mapper

Location
City:  Keetmanshoop, Karas, Namibia
ICAO / IATA:FYKT / KMP

Details
Type:Airport (Aerodrome, Airfield)
Use:Public/Civil
Latitude:26°32'23"S (-26.539827)
Longitude:18°06'41"E (18.111447)
Datum:WGS 1984
Elevation:3506 ft (1069 m)
Runways:2
Longest:7598 × 148 ft (2316 × 45 m)

Time
Timezone:UTC+1 (DST+2)

Weather
METAR:FYKT  041400Z 19004KT CAVOK 37/M03 Q1015
TAF:FYKT  032200Z 0400/0500 18003KT CAVOK BECMG 0406/0408 01003KT BECMG 0411/0413 23009KT

Related Locations
Nearby:
Farthest:PHHF: 12110 mi / 19489 km
Tern Island [French Frigate Shoals Airport], HI, US

Find:

   beyond  
but within

Other Information
Maps:
Links:
Sources:

  


 


Great Circle Mapper   Great Circle Mapper
Great Circle Mapper FAQ   Great Circle Mapper FAQ
  Karl's Home Page
KLSē   KLSē Home
   GC on Facebook
Airlines of the World   Airlines of the World
Donate via PayPal


Copyright © 2004-2019, Karl L. Swartz. All rights reserved.
All trademarks mentioned herein belong to their respective owners.

Please see credits for attribution and copyright information.

Karl Swartz <karl@kls2.com>
  Powered by FreeBSD
Valid HTML 4.01!
Labeled with ICRA
hCard Microformat
Geo Microformat